Accueil
METAR-TAF:

METAR-TAF

Aéroports :

Bad Vöslau, Autriche

latitude: 47-57-52N, longitude: 016-15-34E, altitude: 233 m

Observation

Le bulletin a été fait il y a 5 heures et 47 minutes, à 18:00 UTC
Vent 4 kt de est
Température 31°C
Humidité 40%
Pression
Visibilité 10 km ou plus
Quelques nuages à une hauteur de 5000 ft

METAR: LOAV 171800Z 10004KT 9999 FEW050 31/16

Heure: 01:47 (23:47 UTC)

Prévision

Le bulletin a été fait il y a 12 heures et 22 minutes, à 11:25 UTC
Prévision valable du 17 à 12 UTC au 17 à 21 UTC
Vent 7 kt de nord-est
Visibilité 10 km ou plus
Quelques nuages à une hauteur de 5000 ft
Evoluant progressivement
du 17 à 17 UTC au 17 à 19 UTC
Vent 3 kt de direction variable

TAF: LOAV 171125Z 1712/1721 04007KT 9999 FEW050 BECMG 1717/1719 VRB03KT

Observations et prévisions météorologiques de plus de 4000 aéroports (messages METAR et TAF).

Les stations disponibles sont représentées par des disques jaunes et rouges sur la carte.

Passer la souris dessus pour voir le nom de la station.

Cliquer dessus pour voir les observations et prévisions météorologiques.

Pour changer de carte: cliquez sur les boutons verts avec une croix noire pour zoomer, sur le bouton vert avec un tiret pour effectuer un zoom arrière, ou sur les flèches vertes pour les cartes adjacentes.


METAR-TAF: